sensor_id;sensor_type;location;lat;lon;timestamp;pressure;altitude;pressure_sealevel;temperature;humidity
42601;BME280;28229;48.856;9.088;2022-12-19T00:00:40;98907.47;;;-2.83;86.30
42601;BME280;28229;48.856;9.088;2022-12-19T00:03:06;98902.22;;;-2.94;86.38
42601;BME280;28229;48.856;9.088;2022-12-19T00:05:35;98906.03;;;-2.87;87.19
42601;BME280;28229;48.856;9.088;2022-12-19T00:08:01;98892.84;;;-2.82;87.45
42601;BME280;28229;48.856;9.088;2022-12-19T00:10:27;98894.44;;;-2.69;86.92
42601;BME280;28229;48.856;9.088;2022-12-19T00:12:53;98897.97;;;-2.82;86.58
42601;BME280;28229;48.856;9.088;2022-12-19T00:15:18;98891.19;;;-2.83;87.12
42601;BME280;28229;48.856;9.088;2022-12-19T00:17:44;98883.63;;;-2.74;86.81
42601;BME280;28229;48.856;9.088;2022-12-19T00:20:10;98877.31;;;-2.70;86.63
42601;BME280;28229;48.856;9.088;2022-12-19T00:22:36;98874.03;;;-2.72;86.74
42601;BME280;28229;48.856;9.088;2022-12-19T00:25:02;98871.34;;;-2.70;86.42
42601;BME280;28229;48.856;9.088;2022-12-19T00:27:28;98862.13;;;-2.73;86.16
42601;BME280;28229;48.856;9.088;2022-12-19T00:29:53;98866.53;;;-2.75;85.74
42601;BME280;28229;48.856;9.088;2022-12-19T00:32:19;98857.06;;;-2.74;85.72
42601;BME280;28229;48.856;9.088;2022-12-19T00:34:45;98846.38;;;-2.81;85.73
42601;BME280;28229;48.856;9.088;2022-12-19T00:37:11;98843.31;;;-2.86;85.72
42601;BME280;28229;48.856;9.088;2022-12-19T00:39:37;98849.16;;;-2.84;85.99
42601;BME280;28229;48.856;9.088;2022-12-19T00:42:02;98863.34;;;-2.78;86.57
42601;BME280;28229;48.856;9.088;2022-12-19T00:44:28;98849.88;;;-2.82;86.45
42601;BME280;28229;48.856;9.088;2022-12-19T00:46:54;98855.88;;;-2.81;86.57
42601;BME280;28229;48.856;9.088;2022-12-19T00:49:20;98850.38;;;-2.77;86.70
42601;BME280;28229;48.856;9.088;2022-12-19T00:51:46;98844.78;;;-2.71;86.36
42601;BME280;28229;48.856;9.088;2022-12-19T00:54:12;98838.47;;;-2.66;86.24
42601;BME280;28229;48.856;9.088;2022-12-19T00:56:38;98849.69;;;-2.68;86.54
42601;BME280;28229;48.856;9.088;2022-12-19T00:59:05;98842.91;;;-2.69;86.12
42601;BME280;28229;48.856;9.088;2022-12-19T01:01:34;98841.75;;;-2.64;86.13
42601;BME280;28229;48.856;9.088;2022-12-19T01:04:01;98830.28;;;-2.60;86.25
42601;BME280;28229;48.856;9.088;2022-12-19T01:06:28;98833.94;;;-2.63;86.19
42601;BME280;28229;48.856;9.088;2022-12-19T01:08:54;98832.63;;;-2.69;86.16
42601;BME280;28229;48.856;9.088;2022-12-19T01:11:20;98831.13;;;-2.60;86.27
42601;BME280;28229;48.856;9.088;2022-12-19T01:14:06;98816.69;;;-2.62;86.43
42601;BME280;28229;48.856;9.088;2022-12-19T01:16:32;98813.31;;;-2.63;86.30
42601;BME280;28229;48.856;9.088;2022-12-19T01:18:58;98823.50;;;-2.61;86.69
42601;BME280;28229;48.856;9.088;2022-12-19T01:21:24;98829.25;;;-2.58;86.91
42601;BME280;28229;48.856;9.088;2022-12-19T01:23:50;98828.44;;;-2.58;86.86
42601;BME280;28229;48.856;9.088;2022-12-19T01:26:17;98824.91;;;-2.57;86.58
42601;BME280;28229;48.856;9.088;2022-12-19T01:28:43;98827.13;;;-2.64;87.01
42601;BME280;28229;48.856;9.088;2022-12-19T01:31:09;98821.03;;;-2.63;87.09
42601;BME280;28229;48.856;9.088;2022-12-19T01:33:35;98812.59;;;-2.65;87.64
42601;BME280;28229;48.856;9.088;2022-12-19T01:36:00;98817.66;;;-2.63;87.87
42601;BME280;28229;48.856;9.088;2022-12-19T01:38:34;98828.44;;;-2.58;88.33
42601;BME280;28229;48.856;9.088;2022-12-19T01:41:00;98813.00;;;-2.58;88.34
42601;BME280;28229;48.856;9.088;2022-12-19T01:43:29;98811.59;;;-2.51;88.49
42601;BME280;28229;48.856;9.088;2022-12-19T01:46:05;98796.75;;;-2.47;88.39
42601;BME280;28229;48.856;9.088;2022-12-19T01:48:39;98798.38;;;-2.46;88.45
42601;BME280;28229;48.856;9.088;2022-12-19T01:51:14;98799.91;;;-2.44;88.65
42601;BME280;28229;48.856;9.088;2022-12-19T01:53:45;98787.38;;;-2.37;88.50
42601;BME280;28229;48.856;9.088;2022-12-19T01:56:13;98790.41;;;-2.43;88.49
42601;BME280;28229;48.856;9.088;2022-12-19T01:58:42;98801.78;;;-2.46;88.68
42601;BME280;28229;48.856;9.088;2022-12-19T02:01:13;98783.19;;;-2.38;89.09
42601;BME280;28229;48.856;9.088;2022-12-19T02:03:40;98779.44;;;-2.34;89.67
42601;BME280;28229;48.856;9.088;2022-12-19T02:06:09;98766.44;;;-2.33;89.43
42601;BME280;28229;48.856;9.088;2022-12-19T02:08:38;98755.53;;;-2.25;89.46
42601;BME280;28229;48.856;9.088;2022-12-19T02:11:04;98774.66;;;-2.27;89.38
42601;BME280;28229;48.856;9.088;2022-12-19T02:13:31;98769.25;;;-2.24;88.86
42601;BME280;28229;48.856;9.088;2022-12-19T02:16:14;98756.81;;;-2.19;88.97
42601;BME280;28229;48.856;9.088;2022-12-19T02:18:47;98763.41;;;-2.15;88.88
42601;BME280;28229;48.856;9.088;2022-12-19T02:26:58;98757.56;;;-2.17;89.17
42601;BME280;28229;48.856;9.088;2022-12-19T02:29:53;98749.13;;;-2.08;89.65
42601;BME280;28229;48.856;9.088;2022-12-19T02:35:37;98747.00;;;-2.14;89.82
42601;BME280;28229;48.856;9.088;2022-12-19T02:40:49;98742.19;;;-2.07;89.93
42601;BME280;28229;48.856;9.088;2022-12-19T02:43:17;98752.16;;;-2.03;90.31
42601;BME280;28229;48.856;9.088;2022-12-19T02:45:45;98751.22;;;-2.02;90.17
42601;BME280;28229;48.856;9.088;2022-12-19T02:48:11;98758.72;;;-1.99;90.81
42601;BME280;28229;48.856;9.088;2022-12-19T02:50:41;98757.06;;;-2.00;91.22
42601;BME280;28229;48.856;9.088;2022-12-19T02:53:10;98778.19;;;-1.95;91.66
42601;BME280;28229;48.856;9.088;2022-12-19T02:56:15;98779.34;;;-1.99;91.99
42601;BME280;28229;48.856;9.088;2022-12-19T02:59:06;98760.13;;;-1.95;92.40
42601;BME280;28229;48.856;9.088;2022-12-19T03:01:49;98748.88;;;-1.82;92.58
42601;BME280;28229;48.856;9.088;2022-12-19T03:04:51;98737.97;;;-1.86;92.93
42601;BME280;28229;48.856;9.088;2022-12-19T03:10:17;98741.59;;;-1.77;93.52
42601;BME280;28229;48.856;9.088;2022-12-19T03:12:56;98766.22;;;-1.73;94.04
42601;BME280;28229;48.856;9.088;2022-12-19T03:15:23;98752.03;;;-1.79;94.34
42601;BME280;28229;48.856;9.088;2022-12-19T03:17:51;98749.09;;;-1.74;94.60
42601;BME280;28229;48.856;9.088;2022-12-19T03:20:31;98749.56;;;-1.69;94.74
42601;BME280;28229;48.856;9.088;2022-12-19T03:23:01;98778.63;;;-1.56;94.91
42601;BME280;28229;48.856;9.088;2022-12-19T03:25:28;98768.53;;;-1.59;94.84
42601;BME280;28229;48.856;9.088;2022-12-19T03:27:56;98778.53;;;-1.54;95.01
42601;BME280;28229;48.856;9.088;2022-12-19T03:30:28;98777.47;;;-1.51;94.79
42601;BME280;28229;48.856;9.088;2022-12-19T03:33:02;98783.56;;;-1.52;95.08
42601;BME280;28229;48.856;9.088;2022-12-19T03:35:30;98773.94;;;-1.50;95.26
42601;BME280;28229;48.856;9.088;2022-12-19T03:37:57;98777.09;;;-1.47;95.44
42601;BME280;28229;48.856;9.088;2022-12-19T03:40:27;98773.31;;;-1.43;95.28
42601;BME280;28229;48.856;9.088;2022-12-19T03:42:59;98772.53;;;-1.43;95.23
42601;BME280;28229;48.856;9.088;2022-12-19T03:45:52;98775.91;;;-1.43;95.19
42601;BME280;28229;48.856;9.088;2022-12-19T03:48:34;98763.59;;;-1.39;95.13
42601;BME280;28229;48.856;9.088;2022-12-19T03:51:32;98758.88;;;-1.34;95.13
42601;BME280;28229;48.856;9.088;2022-12-19T03:54:21;98759.56;;;-1.32;94.88
42601;BME280;28229;48.856;9.088;2022-12-19T03:57:05;98760.53;;;-1.33;95.06
42601;BME280;28229;48.856;9.088;2022-12-19T03:59:37;98751.13;;;-1.34;94.51
42601;BME280;28229;48.856;9.088;2022-12-19T04:02:04;98759.38;;;-1.40;94.51
42601;BME280;28229;48.856;9.088;2022-12-19T04:04:34;98761.97;;;-1.40;94.81
42601;BME280;28229;48.856;9.088;2022-12-19T04:07:02;98765.72;;;-1.44;95.38
42601;BME280;28229;48.856;9.088;2022-12-19T04:09:31;98766.66;;;-1.45;96.39
42601;BME280;28229;48.856;9.088;2022-12-19T04:12:01;98771.13;;;-1.47;97.46
42601;BME280;28229;48.856;9.088;2022-12-19T04:14:31;98769.69;;;-1.40;97.58
42601;BME280;28229;48.856;9.088;2022-12-19T04:19:43;98771.31;;;-1.28;97.92
42601;BME280;28229;48.856;9.088;2022-12-19T04:22:18;98769.56;;;-1.27;97.96
42601;BME280;28229;48.856;9.088;2022-12-19T04:24:46;98763.81;;;-1.31;98.30
42601;BME280;28229;48.856;9.088;2022-12-19T04:27:14;98766.41;;;-1.31;98.62
42601;BME280;28229;48.856;9.088;2022-12-19T04:29:41;98772.59;;;-1.22;98.70
42601;BME280;28229;48.856;9.088;2022-12-19T04:32:08;98779.16;;;-1.18;99.16
42601;BME280;28229;48.856;9.088;2022-12-19T04:34:35;98770.59;;;-1.19;99.59
42601;BME280;28229;48.856;9.088;2022-12-19T04:37:01;98771.53;;;-1.20;99.80
42601;BME280;28229;48.856;9.088;2022-12-19T04:39:27;98777.25;;;-1.16;99.79
42601;BME280;28229;48.856;9.088;2022-12-19T04:41:53;98772.44;;;-1.09;99.73
42601;BME280;28229;48.856;9.088;2022-12-19T04:44:19;98767.03;;;-1.06;99.75
42601;BME280;28229;48.856;9.088;2022-12-19T04:46:45;98768.66;;;-1.05;99.79
42601;BME280;28229;48.856;9.088;2022-12-19T04:49:10;98765.72;;;-1.01;99.85
42601;BME280;28229;48.856;9.088;2022-12-19T04:51:36;98765.25;;;-1.06;100.00
42601;BME280;28229;48.856;9.088;2022-12-19T04:54:02;98763.00;;;-0.99;99.73
42601;BME280;28229;48.856;9.088;2022-12-19T04:56:28;98768.66;;;-1.05;100.00
42601;BME280;28229;48.856;9.088;2022-12-19T04:59:00;98772.84;;;-0.93;99.89
42601;BME280;28229;48.856;9.088;2022-12-19T05:01:26;98770.97;;;-0.91;100.00
42601;BME280;28229;48.856;9.088;2022-12-19T05:03:52;98764.72;;;-0.88;100.00
42601;BME280;28229;48.856;9.088;2022-12-19T05:06:18;98760.88;;;-0.94;100.00
42601;BME280;28229;48.856;9.088;2022-12-19T05:08:44;98763.41;;;-0.83;100.00
42601;BME280;28229;48.856;9.088;2022-12-19T05:11:13;98760.84;;;-0.83;100.00
42601;BME280;28229;48.856;9.088;2022-12-19T05:13:40;98760.38;;;-0.88;100.00
42601;BME280;28229;48.856;9.088;2022-12-19T05:16:08;98758.56;;;-0.76;100.00
42601;BME280;28229;48.856;9.088;2022-12-19T05:18:35;98743.06;;;-0.76;100.00
42601;BME280;28229;48.856;9.088;2022-12-19T05:21:02;98743.19;;;-0.78;100.00
42601;BME280;28229;48.856;9.088;2022-12-19T05:23:28;98748.00;;;-0.73;100.00
42601;BME280;28229;48.856;9.088;2022-12-19T05:25:59;98746.47;;;-0.75;100.00
42601;BME280;28229;48.856;9.088;2022-12-19T05:28:26;98743.00;;;-0.65;100.00
42601;BME280;28229;48.856;9.088;2022-12-19T05:31:08;98745.47;;;-0.63;100.00
42601;BME280;28229;48.856;9.088;2022-12-19T05:33:35;98747.13;;;-0.62;100.00
42601;BME280;28229;48.856;9.088;2022-12-19T05:36:03;98742.63;;;-0.60;100.00
42601;BME280;28229;48.856;9.088;2022-12-19T05:38:31;98746.25;;;-0.51;100.00
42601;BME280;28229;48.856;9.088;2022-12-19T05:40:57;98741.50;;;-0.46;100.00
42601;BME280;28229;48.856;9.088;2022-12-19T05:43:23;98741.13;;;-0.42;100.00
42601;BME280;28229;48.856;9.088;2022-12-19T05:45:49;98744.38;;;-0.40;100.00
42601;BME280;28229;48.856;9.088;2022-12-19T05:48:15;98743.31;;;-0.37;100.00
42601;BME280;28229;48.856;9.088;2022-12-19T05:50:46;98750.81;;;-0.34;100.00
42601;BME280;28229;48.856;9.088;2022-12-19T05:53:12;98746.22;;;-0.30;100.00
42601;BME280;28229;48.856;9.088;2022-12-19T05:55:38;98736.28;;;-0.25;100.00
42601;BME280;28229;48.856;9.088;2022-12-19T05:58:05;98736.03;;;-0.22;100.00
42601;BME280;28229;48.856;9.088;2022-12-19T06:00:31;98731.97;;;-0.25;100.00
42601;BME280;28229;48.856;9.088;2022-12-19T06:02:57;98737.69;;;-0.21;100.00
42601;BME280;28229;48.856;9.088;2022-12-19T06:05:23;98732.78;;;-0.24;100.00
42601;BME280;28229;48.856;9.088;2022-12-19T06:07:49;98736.72;;;-0.20;100.00
42601;BME280;28229;48.856;9.088;2022-12-19T06:10:16;98724.25;;;-0.15;100.00
42601;BME280;28229;48.856;9.088;2022-12-19T06:12:42;98724.66;;;-0.10;100.00
42601;BME280;28229;48.856;9.088;2022-12-19T06:15:08;98723.56;;;-0.07;100.00
42601;BME280;28229;48.856;9.088;2022-12-19T06:17:35;98723.75;;;-0.09;100.00
42601;BME280;28229;48.856;9.088;2022-12-19T06:20:01;98711.63;;;0.02;100.00
42601;BME280;28229;48.856;9.088;2022-12-19T06:22:27;98724.13;;;-0.04;100.00
42601;BME280;28229;48.856;9.088;2022-12-19T06:24:53;98718.72;;;-0.01;100.00
42601;BME280;28229;48.856;9.088;2022-12-19T06:27:19;98723.38;;;0.06;100.00
42601;BME280;28229;48.856;9.088;2022-12-19T06:29:45;98724.22;;;0.16;100.00
42601;BME280;28229;48.856;9.088;2022-12-19T06:32:11;98724.50;;;0.23;100.00
42601;BME280;28229;48.856;9.088;2022-12-19T06:34:37;98726.84;;;0.26;100.00
42601;BME280;28229;48.856;9.088;2022-12-19T06:37:03;98731.91;;;0.27;100.00
42601;BME280;28229;48.856;9.088;2022-12-19T06:39:30;98716.78;;;0.32;100.00
42601;BME280;28229;48.856;9.088;2022-12-19T06:41:56;98723.84;;;0.30;100.00
42601;BME280;28229;48.856;9.088;2022-12-19T06:44:40;98727.56;;;0.37;100.00
42601;BME280;28229;48.856;9.088;2022-12-19T06:47:06;98719.38;;;0.32;100.00
42601;BME280;28229;48.856;9.088;2022-12-19T06:49:33;98719.09;;;0.35;100.00
42601;BME280;28229;48.856;9.088;2022-12-19T06:51:59;98720.50;;;0.40;100.00
42601;BME280;28229;48.856;9.088;2022-12-19T06:54:25;98719.94;;;0.46;100.00
42601;BME280;28229;48.856;9.088;2022-12-19T06:56:51;98731.94;;;0.47;100.00
42601;BME280;28229;48.856;9.088;2022-12-19T06:59:17;98725.53;;;0.51;100.00
42601;BME280;28229;48.856;9.088;2022-12-19T07:04:12;98729.50;;;0.55;100.00
42601;BME280;28229;48.856;9.088;2022-12-19T07:06:41;98724.59;;;0.52;100.00
42601;BME280;28229;48.856;9.088;2022-12-19T07:09:07;98714.75;;;0.46;100.00
42601;BME280;28229;48.856;9.088;2022-12-19T07:11:33;98729.47;;;0.45;100.00
42601;BME280;28229;48.856;9.088;2022-12-19T07:13:59;98723.75;;;0.42;100.00
42601;BME280;28229;48.856;9.088;2022-12-19T07:16:26;98731.66;;;0.40;100.00
42601;BME280;28229;48.856;9.088;2022-12-19T07:18:52;98724.59;;;0.52;100.00
42601;BME280;28229;48.856;9.088;2022-12-19T07:21:18;98728.94;;;0.51;100.00
42601;BME280;28229;48.856;9.088;2022-12-19T07:23:45;98723.50;;;0.54;100.00
42601;BME280;28229;48.856;9.088;2022-12-19T07:26:11;98717.22;;;0.57;100.00
42601;BME280;28229;48.856;9.088;2022-12-19T07:28:37;98712.47;;;0.52;100.00
42601;BME280;28229;48.856;9.088;2022-12-19T07:31:03;98717.38;;;0.55;100.00
42601;BME280;28229;48.856;9.088;2022-12-19T07:33:30;98724.31;;;0.55;100.00
42601;BME280;28229;48.856;9.088;2022-12-19T07:35:56;98736.56;;;0.53;100.00
42601;BME280;28229;48.856;9.088;2022-12-19T07:38:22;98732.63;;;0.59;100.00
42601;BME280;28229;48.856;9.088;2022-12-19T07:40:48;98736.63;;;0.63;100.00
42601;BME280;28229;48.856;9.088;2022-12-19T07:43:14;98728.97;;;0.61;100.00
42601;BME280;28229;48.856;9.088;2022-12-19T07:45:42;98728.28;;;0.59;100.00
42601;BME280;28229;48.856;9.088;2022-12-19T07:48:08;98728.28;;;0.59;100.00
42601;BME280;28229;48.856;9.088;2022-12-19T07:50:35;98735.34;;;0.57;100.00
42601;BME280;28229;48.856;9.088;2022-12-19T07:53:01;98730.59;;;0.62;100.00
42601;BME280;28229;48.856;9.088;2022-12-19T07:55:27;98734.16;;;0.61;100.00
42601;BME280;28229;48.856;9.088;2022-12-19T07:57:53;98720.94;;;0.64;100.00
42601;BME280;28229;48.856;9.088;2022-12-19T08:00:20;98725.69;;;0.69;100.00
42601;BME280;28229;48.856;9.088;2022-12-19T08:02:46;98738.53;;;0.70;100.00
42601;BME280;28229;48.856;9.088;2022-12-19T08:05:13;98736.09;;;0.79;100.00
42601;BME280;28229;48.856;9.088;2022-12-19T08:07:39;98736.91;;;0.79;100.00
42601;BME280;28229;48.856;9.088;2022-12-19T08:10:06;98740.28;;;0.80;100.00
42601;BME280;28229;48.856;9.088;2022-12-19T08:12:32;98749.28;;;0.85;100.00
42601;BME280;28229;48.856;9.088;2022-12-19T08:14:59;98753.66;;;0.85;100.00
42601;BME280;28229;48.856;9.088;2022-12-19T08:17:25;98751.38;;;0.91;100.00
42601;BME280;28229;48.856;9.088;2022-12-19T08:19:51;98750.28;;;1.04;100.00
42601;BME280;28229;48.856;9.088;2022-12-19T08:22:18;98754.63;;;1.03;100.00
42601;BME280;28229;48.856;9.088;2022-12-19T08:24:44;98755.72;;;1.10;100.00
42601;BME280;28229;48.856;9.088;2022-12-19T08:27:10;98740.16;;;1.10;100.00
42601;BME280;28229;48.856;9.088;2022-12-19T08:29:36;98751.91;;;1.05;100.00
42601;BME280;28229;48.856;9.088;2022-12-19T08:32:03;98747.00;;;1.11;100.00
42601;BME280;28229;48.856;9.088;2022-12-19T08:34:47;98742.63;;;1.02;100.00
42601;BME280;28229;48.856;9.088;2022-12-19T08:37:13;98742.22;;;1.17;100.00
42601;BME280;28229;48.856;9.088;2022-12-19T08:39:39;98738.00;;;1.25;100.00
42601;BME280;28229;48.856;9.088;2022-12-19T08:42:05;98744.53;;;1.39;100.00
42601;BME280;28229;48.856;9.088;2022-12-19T08:44:31;98749.97;;;1.56;100.00
42601;BME280;28229;48.856;9.088;2022-12-19T08:46:57;98744.19;;;1.71;100.00
42601;BME280;28229;48.856;9.088;2022-12-19T08:49:23;98737.50;;;1.79;100.00
42601;BME280;28229;48.856;9.088;2022-12-19T08:51:50;98737.97;;;1.92;99.50
42601;BME280;28229;48.856;9.088;2022-12-19T08:54:16;98733.31;;;1.96;98.33
42601;BME280;28229;48.856;9.088;2022-12-19T08:56:42;98731.25;;;1.99;97.85
42601;BME280;28229;48.856;9.088;2022-12-19T08:59:09;98732.63;;;2.03;97.79
42601;BME280;28229;48.856;9.088;2022-12-19T09:01:35;98735.06;;;2.05;97.94
42601;BME280;28229;48.856;9.088;2022-12-19T09:04:01;98739.09;;;2.17;97.59
42601;BME280;28229;48.856;9.088;2022-12-19T09:06:27;98731.03;;;2.20;96.99
42601;BME280;28229;48.856;9.088;2022-12-19T09:08:53;98733.06;;;2.26;96.94
42601;BME280;28229;48.856;9.088;2022-12-19T09:11:19;98725.94;;;2.28;95.59
42601;BME280;28229;48.856;9.088;2022-12-19T09:13:46;98725.94;;;2.28;95.03
42601;BME280;28229;48.856;9.088;2022-12-19T09:16:14;98726.75;;;2.29;94.26
42601;BME280;28229;48.856;9.088;2022-12-19T09:18:41;98720.09;;;2.26;93.57
42601;BME280;28229;48.856;9.088;2022-12-19T09:21:08;98726.91;;;2.00;94.28
42601;BME280;28229;48.856;9.088;2022-12-19T09:23:35;98727.03;;;1.98;94.35
42601;BME280;28229;48.856;9.088;2022-12-19T09:26:07;98721.72;;;2.00;94.56
42601;BME280;28229;48.856;9.088;2022-12-19T09:28:35;98722.53;;;2.00;94.67
42601;BME280;28229;48.856;9.088;2022-12-19T09:31:04;98722.47;;;2.10;95.08
42601;BME280;28229;48.856;9.088;2022-12-19T09:33:33;98717.66;;;2.15;94.57
42601;BME280;28229;48.856;9.088;2022-12-19T09:36:00;98729.78;;;2.24;94.19
42601;BME280;28229;48.856;9.088;2022-12-19T09:38:28;98724.91;;;2.21;94.29
42601;BME280;28229;48.856;9.088;2022-12-19T09:46:36;98720.88;;;2.55;93.18
42601;BME280;28229;48.856;9.088;2022-12-19T09:49:11;98720.06;;;2.54;92.75
42601;BME280;28229;48.856;9.088;2022-12-19T09:51:57;98710.19;;;2.58;92.78
42601;BME280;28229;48.856;9.088;2022-12-19T09:54:37;98707.44;;;2.59;92.52
42601;BME280;28229;48.856;9.088;2022-12-19T09:57:14;98716.97;;;2.69;92.33
42601;BME280;28229;48.856;9.088;2022-12-19T09:59:45;98705.22;;;2.64;92.25
42601;BME280;28229;48.856;9.088;2022-12-19T10:02:30;98707.16;;;2.62;92.83
42601;BME280;28229;48.856;9.088;2022-12-19T10:07:52;98712.00;;;2.75;92.20
42601;BME280;28229;48.856;9.088;2022-12-19T10:16:58;98683.91;;;3.15;90.75
42601;BME280;28229;48.856;9.088;2022-12-19T10:22:44;98681.22;;;3.24;89.46
42601;BME280;28229;48.856;9.088;2022-12-19T10:25:35;98682.03;;;3.25;89.50
42601;BME280;28229;48.856;9.088;2022-12-19T10:31:25;98689.63;;;3.45;88.79
42601;BME280;28229;48.856;9.088;2022-12-19T10:34:16;98673.75;;;3.56;88.79
42601;BME280;28229;48.856;9.088;2022-12-19T10:36:48;98673.53;;;3.75;88.28
42601;BME280;28229;48.856;9.088;2022-12-19T10:42:14;98661.59;;;3.91;87.19
42601;BME280;28229;48.856;9.088;2022-12-19T10:44:42;98656.09;;;4.02;87.23
42601;BME280;28229;48.856;9.088;2022-12-19T10:47:15;98667.53;;;4.17;87.03
42601;BME280;28229;48.856;9.088;2022-12-19T10:49:42;98675.31;;;4.09;85.96
42601;BME280;28229;48.856;9.088;2022-12-19T10:52:10;98673.38;;;4.11;85.80
42601;BME280;28229;48.856;9.088;2022-12-19T11:00:14;98653.47;;;4.02;86.39
42601;BME280;28229;48.856;9.088;2022-12-19T11:02:44;98640.50;;;4.10;86.17
42601;BME280;28229;48.856;9.088;2022-12-19T11:05:28;98630.75;;;4.20;86.03
42601;BME280;28229;48.856;9.088;2022-12-19T11:12:59;98633.91;;;4.49;84.67
42601;BME280;28229;48.856;9.088;2022-12-19T11:15:25;98630.16;;;4.51;83.93
42601;BME280;28229;48.856;9.088;2022-12-19T11:18:05;98622.69;;;4.65;83.83
42601;BME280;28229;48.856;9.088;2022-12-19T11:20:32;98627.25;;;4.63;83.41
42601;BME280;28229;48.856;9.088;2022-12-19T11:22:58;98620.41;;;4.70;83.22
42601;BME280;28229;48.856;9.088;2022-12-19T11:25:41;98619.59;;;4.69;83.06
42601;BME280;28229;48.856;9.088;2022-12-19T11:28:21;98619.41;;;4.79;83.20
42601;BME280;28229;48.856;9.088;2022-12-19T11:33:53;98612.53;;;5.27;83.48
42601;BME280;28229;48.856;9.088;2022-12-19T11:36:38;98613.09;;;5.54;81.05
42601;BME280;28229;48.856;9.088;2022-12-19T11:39:14;98609.84;;;5.60;79.98
42601;BME280;28229;48.856;9.088;2022-12-19T11:42:01;98599.25;;;5.62;78.87
42601;BME280;28229;48.856;9.088;2022-12-19T11:44:37;98609.19;;;5.58;78.74
42601;BME280;28229;48.856;9.088;2022-12-19T11:49:58;98592.94;;;5.40;79.53
42601;BME280;28229;48.856;9.088;2022-12-19T11:55:17;98594.50;;;5.65;78.51
42601;BME280;28229;48.856;9.088;2022-12-19T11:57:45;98585.34;;;5.69;79.35
42601;BME280;28229;48.856;9.088;2022-12-19T12:00:18;98573.22;;;5.77;79.17
42601;BME280;28229;48.856;9.088;2022-12-19T12:05:46;98574.28;;;5.59;78.43
42601;BME280;28229;48.856;9.088;2022-12-19T12:08:49;98576.56;;;5.54;78.59
42601;BME280;28229;48.856;9.088;2022-12-19T12:19:28;98572.72;;;5.81;78.09
42601;BME280;28229;48.856;9.088;2022-12-19T12:22:59;98572.50;;;5.91;77.24
42601;BME280;28229;48.856;9.088;2022-12-19T12:39:26;98560.00;;;6.09;77.23
42601;BME280;28229;48.856;9.088;2022-12-19T12:42:32;98545.75;;;5.97;76.37
42601;BME280;28229;48.856;9.088;2022-12-19T12:45:15;98544.78;;;5.90;76.84
42601;BME280;28229;48.856;9.088;2022-12-19T12:47:46;98538.59;;;5.83;77.21
42601;BME280;28229;48.856;9.088;2022-12-19T12:50:15;98544.09;;;5.88;76.97
42601;BME280;28229;48.856;9.088;2022-12-19T12:52:45;98540.84;;;5.86;77.28
42601;BME280;28229;48.856;9.088;2022-12-19T12:55:34;98531.75;;;5.82;77.66
42601;BME280;28229;48.856;9.088;2022-12-19T12:58:37;98539.75;;;5.80;78.04
42601;BME280;28229;48.856;9.088;2022-12-19T13:06:59;98527.16;;;5.52;78.71
42601;BME280;28229;48.856;9.088;2022-12-19T13:09:28;98525.88;;;5.48;79.05
42601;BME280;28229;48.856;9.088;2022-12-19T13:14:48;98536.13;;;5.58;79.88
42601;BME280;28229;48.856;9.088;2022-12-19T13:24:56;98545.03;;;6.03;77.93
42601;BME280;28229;48.856;9.088;2022-12-19T13:27:39;98536.88;;;6.06;77.41
42601;BME280;28229;48.856;9.088;2022-12-19T13:37:47;98536.63;;;5.85;78.20
42601;BME280;28229;48.856;9.088;2022-12-19T13:40:30;98530.13;;;5.81;78.48
42601;BME280;28229;48.856;9.088;2022-12-19T13:43:17;98525.25;;;5.78;78.71
42601;BME280;28229;48.856;9.088;2022-12-19T13:46:05;98532.41;;;5.76;79.39
42601;BME280;28229;48.856;9.088;2022-12-19T13:48:42;98525.81;;;5.88;79.08
42601;BME280;28229;48.856;9.088;2022-12-19T13:51:10;98539.09;;;6.09;78.08
42601;BME280;28229;48.856;9.088;2022-12-19T13:53:37;98532.16;;;6.25;76.92
42601;BME280;28229;48.856;9.088;2022-12-19T13:56:15;98533.78;;;6.26;76.81
42601;BME280;28229;48.856;9.088;2022-12-19T13:58:49;98535.78;;;6.24;76.86
42601;BME280;28229;48.856;9.088;2022-12-19T14:01:27;98537.72;;;6.22;76.78
42601;BME280;28229;48.856;9.088;2022-12-19T14:03:55;98543.53;;;6.32;75.74
42601;BME280;28229;48.856;9.088;2022-12-19T14:06:26;98544.00;;;6.36;76.06
42601;BME280;28229;48.856;9.088;2022-12-19T14:09:01;98549.00;;;6.45;75.46
42601;BME280;28229;48.856;9.088;2022-12-19T14:11:28;98548.91;;;6.54;75.06
42601;BME280;28229;48.856;9.088;2022-12-19T14:13:58;98547.59;;;6.58;74.58
42601;BME280;28229;48.856;9.088;2022-12-19T14:16:44;98545.72;;;6.66;73.86
42601;BME280;28229;48.856;9.088;2022-12-19T14:19:19;98538.41;;;6.62;74.13
42601;BME280;28229;48.856;9.088;2022-12-19T14:21:46;98542.63;;;6.63;73.96
42601;BME280;28229;48.856;9.088;2022-12-19T14:24:16;98557.69;;;6.61;73.57
42601;BME280;28229;48.856;9.088;2022-12-19T14:26:44;98549.84;;;6.61;73.76
42601;BME280;28229;48.856;9.088;2022-12-19T14:29:21;98554.56;;;6.42;74.20
42601;BME280;28229;48.856;9.088;2022-12-19T14:31:48;98556.59;;;6.32;74.62
42601;BME280;28229;48.856;9.088;2022-12-19T14:34:21;98559.34;;;6.16;75.16
42601;BME280;28229;48.856;9.088;2022-12-19T14:36:52;98557.41;;;6.09;75.44
42601;BME280;28229;48.856;9.088;2022-12-19T14:39:21;98543.59;;;5.93;75.79
42601;BME280;28229;48.856;9.088;2022-12-19T14:41:50;98555.56;;;5.87;76.44
42601;BME280;28229;48.856;9.088;2022-12-19T14:44:53;98546.16;;;5.78;76.82
42601;BME280;28229;48.856;9.088;2022-12-19T14:49:47;98553.97;;;5.78;77.32
42601;BME280;28229;48.856;9.088;2022-12-19T14:52:33;98553.38;;;5.67;77.24
42601;BME280;28229;48.856;9.088;2022-12-19T14:57:54;98554.34;;;5.66;76.95
42601;BME280;28229;48.856;9.088;2022-12-19T15:00:32;98543.47;;;5.55;76.92
42601;BME280;28229;48.856;9.088;2022-12-19T15:03:08;98548.50;;;5.56;76.84
42601;BME280;28229;48.856;9.088;2022-12-19T15:05:34;98546.09;;;5.46;77.22
42601;BME280;28229;48.856;9.088;2022-12-19T15:08:00;98544.03;;;5.33;77.69
42601;BME280;28229;48.856;9.088;2022-12-19T15:10:32;98548.94;;;5.28;78.20
42601;BME280;28229;48.856;9.088;2022-12-19T15:13:23;98551.25;;;5.23;78.35
42601;BME280;28229;48.856;9.088;2022-12-19T15:15:56;98542.47;;;5.16;78.81
42601;BME280;28229;48.856;9.088;2022-12-19T15:18:27;98534.94;;;5.21;78.68